Time;durP1;ratioP1;P1;durP2;ratioP2;P2;SDS_P1;SDS_P2;PMS_P1;PMS_P2;Temp;Humidity;BMP_temperature;BMP_pressure;BME280_temperature;BME280_humidity;BME280_pressure;Samples;Min_cycle;Max_cycle;Signal;HPM_P1;HPM_P2
2024/01/12 00:00:33;;;;;;;32.13;15.90;;;2.50;71.50;;;;;;6245673;23;20071;-64
2024/01/12 00:03:01;;;;;;;32.40;17.07;;;2.50;71.70;;;;;;6245438;23;20034;-63
2024/01/12 00:05:27;;;;;;;42.07;17.20;;;2.50;71.60;;;;;;6245648;23;20020;-64
2024/01/12 00:07:52;;;;;;;36.63;17.80;;;2.50;71.60;;;;;;6245872;23;19996;-64
2024/01/12 00:10:19;;;;;;;42.70;18.43;;;2.50;71.60;;;;;;6246084;23;20008;-64
2024/01/12 00:12:44;;;;;;;34.30;17.93;;;2.40;72.00;;;;;;6245655;23;20008;-64
2024/01/12 00:15:10;;;;;;;34.30;18.30;;;2.40;71.80;;;;;;6245663;23;20080;-63
2024/01/12 00:17:36;;;;;;;39.00;19.40;;;2.40;72.00;;;;;;6245348;23;20074;-63
2024/01/12 00:20:04;;;;;;;35.57;18.17;;;2.40;72.00;;;;;;6245315;23;20000;-64
2024/01/12 00:22:30;;;;;;;34.07;17.83;;;2.30;71.40;;;;;;6243005;23;20015;-63
2024/01/12 00:24:56;;;;;;;28.67;16.13;;;2.20;71.90;;;;;;6245369;23;20000;-63
2024/01/12 00:27:22;;;;;;;31.87;16.27;;;2.20;72.20;;;;;;6245043;23;20027;-64
2024/01/12 00:29:47;;;;;;;32.07;15.83;;;2.20;72.30;;;;;;6245478;23;20023;-64
2024/01/12 00:32:13;;;;;;;32.57;15.27;;;2.10;72.00;;;;;;6245242;23;20003;-63
2024/01/12 00:34:39;;;;;;;26.70;14.17;;;2.10;71.80;;;;;;6245257;23;20024;-64
2024/01/12 00:37:04;;;;;;;27.37;14.33;;;2.10;71.70;;;;;;6245198;23;20004;-63
2024/01/12 00:39:32;;;;;;;26.40;14.40;;;2.10;72.10;;;;;;6243723;23;20003;-64
2024/01/12 00:41:57;;;;;;;22.97;12.27;;;2.10;72.40;;;;;;6245714;23;20201;-64
2024/01/12 00:44:23;;;;;;;22.17;12.03;;;2.10;72.10;;;;;;6245668;23;20027;-63
2024/01/12 00:46:51;;;;;;;21.33;11.63;;;2.10;72.50;;;;;;6243775;23;20378;-64
2024/01/12 00:49:20;;;;;;;20.63;10.23;;;2.10;72.60;;;;;;6245330;23;19996;-64
2024/01/12 00:51:47;;;;;;;17.83;9.07;;;2.10;72.60;;;;;;6245388;23;20066;-64
2024/01/12 00:54:13;;;;;;;15.00;8.10;;;2.10;72.50;;;;;;6245343;23;20418;-63
2024/01/12 00:56:39;;;;;;;16.03;8.20;;;2.20;72.50;;;;;;6245151;23;20010;-64
2024/01/12 00:59:07;;;;;;;15.90;7.30;;;2.20;72.80;;;;;;6245441;23;20011;-64
2024/01/12 01:01:34;;;;;;;12.07;6.83;;;2.30;72.10;;;;;;6245318;23;20012;-63
2024/01/12 01:04:00;;;;;;;13.83;7.27;;;2.30;71.90;;;;;;6245232;23;20488;-64
2024/01/12 01:06:27;;;;;;;11.80;6.77;;;2.40;71.90;;;;;;6245123;23;20011;-64
2024/01/12 01:08:53;;;;;;;11.40;6.50;;;2.40;72.10;;;;;;6244872;23;20064;-64
2024/01/12 01:11:19;;;;;;;14.03;7.10;;;2.50;71.70;;;;;;6245226;23;20079;-63
2024/01/12 01:13:45;;;;;;;12.53;6.87;;;2.50;71.50;;;;;;6244966;23;20028;-64
2024/01/12 01:16:10;;;;;;;15.20;7.60;;;2.60;71.50;;;;;;6245465;23;20018;-64
2024/01/12 01:18:36;;;;;;;14.50;8.03;;;2.60;71.60;;;;;;6245164;23;20322;-64
2024/01/12 01:21:02;;;;;;;17.60;8.23;;;2.60;71.60;;;;;;6245213;23;20082;-64
2024/01/12 01:23:28;;;;;;;17.63;9.60;;;2.70;71.50;;;;;;6244941;23;20094;-63
2024/01/12 01:25:54;;;;;;;17.43;9.73;;;2.70;71.40;;;;;;6245364;23;20000;-63
2024/01/12 01:28:20;;;;;;;20.00;10.03;;;2.60;71.60;;;;;;6218261;23;20016;-63
2024/01/12 01:30:46;;;;;;;19.40;10.20;;;2.60;71.80;;;;;;6245289;23;20057;-64
2024/01/12 01:33:11;;;;;;;21.10;9.60;;;2.60;71.80;;;;;;6244719;23;20008;-64
2024/01/12 01:35:37;;;;;;;18.77;9.67;;;2.40;72.40;;;;;;6246948;23;20000;-64
2024/01/12 01:38:03;;;;;;;14.77;8.60;;;2.40;73.00;;;;;;6247233;23;20013;-63
2024/01/12 01:40:29;;;;;;;18.47;8.93;;;2.30;73.30;;;;;;6247239;23;19996;-63
2024/01/12 01:42:55;;;;;;;19.73;8.70;;;2.30;73.40;;;;;;6247028;23;20019;-64
2024/01/12 01:45:21;;;;;;;15.27;7.90;;;2.20;73.90;;;;;;6246946;23;20009;-64
2024/01/12 01:47:47;;;;;;;15.47;7.83;;;2.20;74.30;;;;;;6246672;23;20458;-64
2024/01/12 01:50:14;;;;;;;13.97;7.07;;;2.20;74.10;;;;;;6247003;23;20506;-64
2024/01/12 01:52:42;;;;;;;12.87;7.57;;;2.20;74.10;;;;;;6246995;23;20073;-64
2024/01/12 01:55:09;;;;;;;15.30;7.57;;;2.30;73.90;;;;;;6246986;23;20434;-64
2024/01/12 01:57:36;;;;;;;15.70;8.83;;;2.30;73.60;;;;;;6245714;23;20027;-63
2024/01/12 02:00:02;;;;;;;13.00;8.40;;;2.30;73.50;;;;;;6243346;23;19997;-64
2024/01/12 02:02:28;;;;;;;20.33;11.50;;;2.30;73.30;;;;;;6242745;23;20020;-63
2024/01/12 02:04:59;;;;;;;23.50;12.93;;;2.40;73.30;;;;;;6245500;23;20016;-63
2024/01/12 02:07:25;;;;;;;18.77;10.57;;;2.30;73.20;;;;;;6246568;23;20000;-64
2024/01/12 02:09:52;;;;;;;22.03;11.90;;;2.20;73.60;;;;;;6246680;23;20411;-64
2024/01/12 02:12:17;;;;;;;23.10;11.87;;;2.30;73.90;;;;;;6246428;23;20430;-63
2024/01/12 02:14:43;;;;;;;20.10;10.33;;;2.20;73.50;;;;;;6244498;23;20007;-64
2024/01/12 02:17:09;;;;;;;22.07;11.37;;;2.20;73.60;;;;;;6246483;23;20050;-63
2024/01/12 02:19:35;;;;;;;19.13;10.90;;;2.20;73.60;;;;;;6246514;23;20419;-64
2024/01/12 02:22:00;;;;;;;22.00;11.73;;;2.20;73.60;;;;;;6245966;23;20063;-63
2024/01/12 02:24:26;;;;;;;22.90;12.60;;;2.20;73.60;;;;;;6246040;23;20023;-64
2024/01/12 02:26:52;;;;;;;23.70;12.20;;;2.00;74.00;;;;;;6246414;23;20065;-63
2024/01/12 02:29:18;;;;;;;22.33;12.13;;;2.00;74.30;;;;;;6246382;23;20003;-64
2024/01/12 02:31:45;;;;;;;19.93;11.23;;;1.90;74.40;;;;;;6246633;23;20000;-64
2024/01/12 02:34:11;;;;;;;18.50;10.23;;;1.80;74.70;;;;;;6246592;23;19996;-64
2024/01/12 02:36:36;;;;;;;16.97;9.53;;;1.80;74.80;;;;;;6246256;23;20004;-64
2024/01/12 02:39:02;;;;;;;19.53;9.70;;;1.80;74.80;;;;;;6246360;23;20000;-63
2024/01/12 02:41:28;;;;;;;19.83;11.23;;;1.80;74.80;;;;;;6246037;23;20012;-63
2024/01/12 02:43:54;;;;;;;23.73;12.53;;;1.90;75.00;;;;;;6245593;23;20000;-64
2024/01/12 02:46:20;;;;;;;25.83;12.80;;;1.90;74.60;;;;;;6245722;23;20071;-63
2024/01/12 02:48:45;;;;;;;23.83;13.17;;;1.90;74.60;;;;;;6246038;23;20010;-63
2024/01/12 02:51:11;;;;;;;26.23;14.93;;;1.90;75.00;;;;;;6246129;23;20359;-63
2024/01/12 02:53:37;;;;;;;24.60;13.40;;;1.80;75.20;;;;;;6246137;23;20008;-63
2024/01/12 02:56:03;;;;;;;25.97;13.10;;;1.70;75.60;;;;;;6245977;23;20000;-64
2024/01/12 02:58:28;;;;;;;25.50;13.80;;;1.70;76.40;;;;;;6245877;23;20004;-64
2024/01/12 03:00:54;;;;;;;26.23;14.63;;;1.70;76.10;;;;;;6246584;23;20004;-63
2024/01/12 03:03:20;;;;;;;26.80;13.70;;;1.60;77.30;;;;;;6246293;23;20004;-63
2024/01/12 03:05:49;;;;;;;26.67;15.27;;;1.60;77.20;;;;;;6245912;23;20000;-64
2024/01/12 03:08:14;;;;;;;26.27;13.97;;;1.50;76.90;;;;;;6246293;23;20054;-63
2024/01/12 03:10:40;;;;;;;24.90;13.83;;;1.50;77.10;;;;;;6246258;23;20345;-63
2024/01/12 03:13:06;;;;;;;23.23;12.90;;;1.40;77.80;;;;;;6246175;23;20036;-64
2024/01/12 03:15:32;;;;;;;20.03;11.20;;;1.40;77.90;;;;;;6246131;23;20004;-64
2024/01/12 03:17:58;;;;;;;21.33;11.57;;;1.40;78.10;;;;;;6246190;23;20375;-64
2024/01/12 03:20:24;;;;;;;21.97;12.27;;;1.50;77.70;;;;;;6246178;23;20487;-63
2024/01/12 03:22:51;;;;;;;20.00;11.13;;;1.50;76.90;;;;;;6245861;23;20087;-64
2024/01/12 03:25:16;;;;;;;25.73;12.73;;;1.60;76.90;;;;;;6246054;23;20434;-64
2024/01/12 03:27:42;;;;;;;20.27;11.47;;;1.50;76.30;;;;;;6246083;23;20079;-64
2024/01/12 03:30:09;;;;;;;21.40;11.03;;;1.50;76.20;;;;;;6245695;23;19996;-63
2024/01/12 03:32:35;;;;;;;19.00;10.43;;;1.50;76.20;;;;;;6245773;23;20004;-63
2024/01/12 03:35:00;;;;;;;20.80;11.37;;;1.40;76.20;;;;;;6245806;23;20461;-64
2024/01/12 03:37:26;;;;;;;18.67;10.23;;;1.40;76.30;;;;;;6246032;23;20054;-63
2024/01/12 03:39:52;;;;;;;18.50;10.10;;;1.30;76.90;;;;;;6246163;23;20004;-64
2024/01/12 03:42:18;;;;;;;18.50;10.43;;;1.30;76.80;;;;;;6245578;23;20323;-63
2024/01/12 03:44:43;;;;;;;20.70;11.50;;;1.40;77.00;;;;;;6245895;23;20004;-63
2024/01/12 03:47:09;;;;;;;21.10;10.63;;;1.40;76.20;;;;;;6245814;23;20422;-63
2024/01/12 03:49:35;;;;;;;18.87;9.97;;;1.30;75.80;;;;;;6245965;23;20057;-63
2024/01/12 03:52:00;;;;;;;18.43;9.60;;;1.30;75.80;;;;;;6245940;23;20000;-63
2024/01/12 03:54:26;;;;;;;17.60;9.20;;;1.30;76.30;;;;;;6245574;23;20071;-63
2024/01/12 03:56:52;;;;;;;15.93;8.63;;;1.20;76.20;;;;;;6245607;23;20031;-64
2024/01/12 03:59:18;;;;;;;17.67;8.57;;;1.20;76.90;;;;;;6245643;23;20003;-64
2024/01/12 04:01:47;;;;;;;17.80;8.40;;;1.30;77.20;;;;;;6245716;23;20339;-63
2024/01/12 04:04:13;;;;;;;16.60;8.20;;;1.30;76.20;;;;;;6245242;23;20027;-63
2024/01/12 04:06:42;;;;;;;15.93;8.90;;;1.20;76.70;;;;;;6245154;23;20071;-64
2024/01/12 04:09:12;;;;;;;15.40;8.90;;;1.20;76.70;;;;;;6245414;23;20082;-63
2024/01/12 04:11:38;;;;;;;16.70;8.60;;;1.20;76.60;;;;;;6245599;23;20349;-63
2024/01/12 04:14:04;;;;;;;16.50;8.93;;;1.20;76.70;;;;;;6245536;23;20008;-63
2024/01/12 04:16:30;;;;;;;16.53;8.53;;;1.20;76.60;;;;;;6245540;23;20095;-63
2024/01/12 04:18:56;;;;;;;14.77;8.40;;;1.20;76.80;;;;;;6245436;23;20411;-63
2024/01/12 04:21:22;;;;;;;15.87;8.47;;;1.30;77.20;;;;;;6244760;23;20016;-62
2024/01/12 04:23:48;;;;;;;14.03;8.03;;;1.20;77.40;;;;;;6245095;23;19996;-63
2024/01/12 04:26:13;;;;;;;14.87;7.37;;;1.30;78.20;;;;;;6245299;23;20000;-63
2024/01/12 04:28:39;;;;;;;12.63;7.70;;;1.20;77.70;;;;;;6245164;23;20003;-63
2024/01/12 04:31:05;;;;;;;13.17;7.17;;;1.30;78.40;;;;;;6245417;23;20000;-63
2024/01/12 04:33:32;;;;;;;12.97;6.70;;;1.20;78.00;;;;;;6245275;23;20007;-63
2024/01/12 04:35:59;;;;;;;11.47;6.57;;;1.20;77.70;;;;;;6245323;23;20066;-63
2024/01/12 04:38:26;;;;;;;13.13;6.57;;;1.30;77.70;;;;;;6245276;23;20000;-63
2024/01/12 04:40:53;;;;;;;10.90;6.20;;;1.30;78.00;;;;;;6245291;23;20006;-63
2024/01/12 04:43:19;;;;;;;12.23;6.57;;;1.30;77.90;;;;;;6245528;23;20019;-63
2024/01/12 04:45:44;;;;;;;14.30;8.93;;;1.40;77.80;;;;;;6245167;23;20362;-64
2024/01/12 04:48:10;;;;;;;13.73;6.67;;;1.40;77.80;;;;;;6245219;23;20038;-63
2024/01/12 04:50:36;;;;;;;13.27;6.83;;;1.40;77.60;;;;;;6245092;23;20027;-63
2024/01/12 04:53:02;;;;;;;12.03;6.53;;;1.50;77.50;;;;;;6245465;23;20023;-63
2024/01/12 04:55:27;;;;;;;11.87;6.57;;;1.50;77.40;;;;;;6244982;23;20004;-61
2024/01/12 04:57:53;;;;;;;11.93;6.47;;;1.60;77.40;;;;;;6244748;23;19996;-63
2024/01/12 05:00:20;;;;;;;14.20;8.87;;;1.60;77.20;;;;;;6244975;23;20004;-63
2024/01/12 05:02:45;;;;;;;12.53;9.43;;;1.70;77.00;;;;;;6245021;23;20015;-63
2024/01/12 05:05:11;;;;;;;10.87;6.43;;;1.70;77.30;;;;;;6245082;23;20000;-63
2024/01/12 05:07:37;;;;;;;13.33;7.23;;;1.80;77.30;;;;;;6244369;23;20005;-63
2024/01/12 05:10:04;;;;;;;12.47;7.53;;;1.80;77.10;;;;;;6247543;23;20058;-63
2024/01/12 05:12:30;;;;;;;12.00;7.03;;;1.90;76.90;;;;;;6248316;23;20065;-63
2024/01/12 05:14:56;;;;;;;12.57;7.23;;;1.90;76.70;;;;;;6248383;23;20004;-63
2024/01/12 05:17:25;;;;;;;13.80;8.63;;;1.90;76.60;;;;;;6248238;23;20035;-63
2024/01/12 05:19:51;;;;;;;13.27;8.47;;;2.00;76.90;;;;;;6248455;23;20000;-63
2024/01/12 05:22:16;;;;;;;11.20;7.73;;;2.00;76.90;;;;;;6248454;23;20087;-63
2024/01/12 05:24:42;;;;;;;11.93;7.50;;;2.00;76.90;;;;;;6248536;23;20000;-63
2024/01/12 05:27:08;;;;;;;12.77;7.70;;;2.00;76.80;;;;;;6248485;23;20027;-64
2024/01/12 05:29:37;;;;;;;11.10;6.10;;;2.00;76.70;;;;;;6248422;23;19996;-63
2024/01/12 05:32:03;;;;;;;10.93;6.87;;;2.00;76.50;;;;;;6248069;23;20001;-63
2024/01/12 05:34:29;;;;;;;11.13;6.63;;;2.00;76.70;;;;;;6248339;23;20430;-63
2024/01/12 05:36:55;;;;;;;12.23;5.93;;;2.00;76.70;;;;;;6248450;23;20003;-63
2024/01/12 05:39:21;;;;;;;10.23;5.73;;;2.00;76.60;;;;;;6248305;23;20004;-63
2024/01/12 05:41:46;;;;;;;12.77;5.70;;;2.00;76.60;;;;;;6248027;23;20047;-63
2024/01/12 05:44:12;;;;;;;10.53;5.83;;;2.00;76.70;;;;;;6247581;23;20008;-63
2024/01/12 05:46:41;;;;;;;10.67;5.80;;;2.10;76.70;;;;;;6247668;23;20023;-63
2024/01/12 05:49:06;;;;;;;15.20;6.33;;;2.10;76.70;;;;;;6221332;23;20008;-63
2024/01/12 05:51:32;;;;;;;13.03;5.90;;;2.10;76.40;;;;;;6247381;23;20362;-63
2024/01/12 05:53:58;;;;;;;11.43;6.40;;;2.10;76.40;;;;;;6247865;23;20023;-63
2024/01/12 05:56:24;;;;;;;11.70;6.33;;;2.10;76.40;;;;;;6248256;23;20004;-63
2024/01/12 05:58:50;;;;;;;12.43;6.43;;;2.10;76.70;;;;;;6248054;23;20001;-63
2024/01/12 06:01:17;;;;;;;12.60;6.93;;;2.10;76.50;;;;;;6248128;23;20446;-63
2024/01/12 06:03:45;;;;;;;13.47;7.73;;;2.10;76.50;;;;;;6248088;23;20087;-63
2024/01/12 06:06:11;;;;;;;12.47;6.80;;;2.10;76.50;;;;;;6247757;23;20005;-63
2024/01/12 06:08:37;;;;;;;11.17;6.43;;;2.10;76.60;;;;;;6248077;23;20092;-63
2024/01/12 06:11:04;;;;;;;15.37;6.10;;;2.10;76.40;;;;;;6248141;23;20080;-63
2024/01/12 06:13:30;;;;;;;11.27;5.87;;;2.10;76.40;;;;;;6248237;23;20081;-63
2024/01/12 06:15:56;;;;;;;14.07;6.17;;;2.10;76.50;;;;;;6247916;23;20014;-63
2024/01/12 06:18:22;;;;;;;11.77;6.07;;;2.10;76.30;;;;;;6248449;23;20036;-63
2024/01/12 06:20:48;;;;;;;12.73;5.83;;;2.10;76.30;;;;;;6246706;23;20003;-63
2024/01/12 06:23:14;;;;;;;11.23;5.90;;;2.10;76.20;;;;;;6246344;23;20008;-63
2024/01/12 06:25:40;;;;;;;12.60;6.50;;;2.20;76.30;;;;;;6246453;23;20000;-63
2024/01/12 06:28:06;;;;;;;10.77;5.80;;;2.10;76.30;;;;;;6246568;23;20008;-63
2024/01/12 06:30:32;;;;;;;10.47;5.80;;;2.10;76.60;;;;;;6246196;23;20497;-63
2024/01/12 06:32:58;;;;;;;12.33;5.47;;;2.20;76.50;;;;;;6246578;23;20233;-63
2024/01/12 06:35:25;;;;;;;12.57;6.40;;;2.10;76.40;;;;;;6246284;23;20323;-63
2024/01/12 06:37:51;;;;;;;10.47;5.53;;;2.10;76.50;;;;;;6246340;23;20007;-63
2024/01/12 06:40:17;;;;;;;10.43;5.77;;;2.10;76.70;;;;;;6246553;23;20004;-63
2024/01/12 06:42:42;;;;;;;10.47;6.37;;;2.10;76.70;;;;;;6246333;23;20129;-63
2024/01/12 06:45:10;;;;;;;19.30;6.40;;;2.10;76.70;;;;;;6246001;23;20012;-63
2024/01/12 06:47:36;;;;;;;12.90;6.50;;;2.10;76.70;;;;;;6245817;23;20409;-63
2024/01/12 06:50:02;;;;;;;10.83;5.93;;;2.10;76.80;;;;;;6245917;23;20001;-63
2024/01/12 06:52:30;;;;;;;11.43;5.43;;;2.10;77.00;;;;;;6246003;23;20004;-63
2024/01/12 06:54:56;;;;;;;12.50;6.83;;;2.10;76.90;;;;;;6245998;23;20438;-63
2024/01/12 06:57:22;;;;;;;16.57;6.57;;;2.10;76.70;;;;;;6246270;23;20008;-63
2024/01/12 06:59:48;;;;;;;17.10;6.87;;;2.10;76.80;;;;;;6233497;23;20078;-63
2024/01/12 07:02:14;;;;;;;13.03;8.00;;;2.10;76.80;;;;;;6245878;23;20442;-63
2024/01/12 07:04:40;;;;;;;14.60;7.53;;;2.10;76.90;;;;;;6218800;23;20304;-63
2024/01/12 07:07:07;;;;;;;15.57;7.97;;;2.10;76.90;;;;;;6245680;23;20000;-63
2024/01/12 07:09:33;;;;;;;11.97;6.83;;;2.10;76.80;;;;;;6245821;23;19997;-63
2024/01/12 07:11:58;;;;;;;18.10;7.03;;;2.20;77.00;;;;;;6245879;23;20019;-63
2024/01/12 07:14:24;;;;;;;11.93;6.93;;;2.20;76.90;;;;;;6245984;23;19996;-63
2024/01/12 07:16:50;;;;;;;15.83;6.47;;;2.20;76.70;;;;;;6246087;23;20004;-63
2024/01/12 07:19:15;;;;;;;15.97;6.87;;;2.30;76.80;;;;;;6218979;23;20028;-63
2024/01/12 07:21:41;;;;;;;14.27;6.40;;;2.30;76.50;;;;;;6245999;23;20008;-63
2024/01/12 07:24:07;;;;;;;11.47;6.33;;;2.30;76.30;;;;;;6245640;23;19996;-63
2024/01/12 07:26:33;;;;;;;12.67;6.47;;;2.40;76.40;;;;;;6245707;23;20004;-63
2024/01/12 07:28:59;;;;;;;13.87;5.93;;;2.40;76.30;;;;;;6245578;23;20106;-63
2024/01/12 07:31:25;;;;;;;12.00;6.50;;;2.40;76.20;;;;;;6245338;23;20011;-63
2024/01/12 07:33:50;;;;;;;15.93;6.17;;;2.50;76.10;;;;;;6245475;23;20000;-64
2024/01/12 07:36:16;;;;;;;12.23;6.60;;;2.50;76.10;;;;;;6245218;23;20070;-63
2024/01/12 07:38:42;;;;;;;9.80;6.37;;;2.50;76.10;;;;;;6245532;23;20011;-63
2024/01/12 07:41:07;;;;;;;9.30;5.80;;;2.60;76.00;;;;;;6245342;23;20004;-63
2024/01/12 07:43:33;;;;;;;14.00;5.83;;;2.60;76.10;;;;;;6245673;23;20007;-63
2024/01/12 07:45:59;;;;;;;12.13;5.60;;;2.60;76.00;;;;;;6244947;23;19997;-64
2024/01/12 07:48:25;;;;;;;12.57;6.27;;;2.70;75.90;;;;;;6245317;23;20004;-63
2024/01/12 07:50:51;;;;;;;13.00;5.93;;;2.70;75.70;;;;;;6245224;23;20438;-63
2024/01/12 07:53:17;;;;;;;11.37;5.60;;;2.80;75.70;;;;;;6245511;23;20473;-63
2024/01/12 07:55:43;;;;;;;16.77;6.30;;;2.80;75.70;;;;;;6245610;23;20001;-63
2024/01/12 07:58:09;;;;;;;11.50;6.40;;;2.90;75.80;;;;;;6245254;23;20000;-64
2024/01/12 08:00:35;;;;;;;11.70;5.90;;;3.00;75.80;;;;;;6245261;23;20004;-63
2024/01/12 08:03:02;;;;;;;10.23;6.00;;;3.00;75.70;;;;;;6245199;23;20469;-63
2024/01/12 08:05:28;;;;;;;19.43;6.80;;;3.10;75.70;;;;;;6245294;23;20004;-63
2024/01/12 08:07:54;;;;;;;12.97;6.20;;;3.10;75.80;;;;;;6245593;23;20007;-63
2024/01/12 08:10:20;;;;;;;14.47;6.97;;;3.20;75.50;;;;;;6245217;23;20327;-64
2024/01/12 08:12:47;;;;;;;12.33;6.87;;;3.20;75.40;;;;;;6245158;23;20004;-64
2024/01/12 08:15:13;;;;;;;13.47;6.87;;;3.30;75.40;;;;;;6244964;23;19993;-63
2024/01/12 08:17:41;;;;;;;14.50;6.57;;;3.30;75.50;;;;;;6245742;23;20000;-63
2024/01/12 08:20:07;;;;;;;13.33;6.23;;;3.40;75.40;;;;;;6245122;23;20477;-64
2024/01/12 08:22:33;;;;;;;11.60;6.50;;;3.50;75.40;;;;;;6245197;23;20022;-64
2024/01/12 08:25:00;;;;;;;11.87;6.00;;;3.50;75.30;;;;;;6244596;23;20027;-64
2024/01/12 08:27:26;;;;;;;10.97;5.90;;;3.60;75.00;;;;;;6245366;23;20007;-63
2024/01/12 08:29:52;;;;;;;11.67;5.63;;;;;;;;;;6245416;23;20007;-63
2024/01/12 08:32:19;;;;;;;13.70;5.90;;;;;;;;;;6245349;23;19996;-64
2024/01/12 08:34:45;;;;;;;14.03;5.87;;;;;;;;;;6245381;23;20008;-64
2024/01/12 08:37:10;;;;;;;10.93;5.13;;;3.80;74.60;;;;;;6244958;23;20039;-63
2024/01/12 08:39:36;;;;;;;11.33;5.87;;;4.00;73.90;;;;;;6245101;23;20012;-64
2024/01/12 08:42:02;;;;;;;11.23;6.10;;;4.10;73.80;;;;;;6245329;23;20016;-63
2024/01/12 08:44:28;;;;;;;11.97;6.10;;;4.10;74.00;;;;;;6244783;23;20418;-64
2024/01/12 08:46:53;;;;;;;17.27;6.40;;;4.20;73.90;;;;;;6244734;23;20039;-64
2024/01/12 08:49:22;;;;;;;13.10;5.87;;;4.30;73.20;;;;;;6244923;23;20418;-64
2024/01/12 08:51:48;;;;;;;11.87;6.40;;;;;;;;;;6244707;23;20081;-64
2024/01/12 08:54:15;;;;;;;11.13;6.30;;;;;;;;;;6244151;23;19997;-64
2024/01/12 08:56:41;;;;;;;15.17;6.53;;;;;;;;;;6244706;23;20427;-63
2024/01/12 08:59:08;;;;;;;16.33;7.10;;;4.30;73.20;;;;;;6244663;23;20102;-63
2024/01/12 09:01:34;;;;;;;11.03;6.13;;;4.60;72.30;;;;;;6244246;23;20414;-64
2024/01/12 09:04:01;;;;;;;13.90;6.50;;;4.70;71.60;;;;;;6241392;23;20582;-66
2024/01/12 09:06:30;;;;;;;13.57;6.57;;;4.70;71.70;;;;;;6241356;23;20334;-64
2024/01/12 09:08:56;;;;;;;10.53;6.30;;;4.70;71.20;;;;;;6243060;23;20091;-63
2024/01/12 09:11:22;;;;;;;13.93;7.03;;;4.80;70.90;;;;;;6244550;23;20082;-63
2024/01/12 09:13:48;;;;;;;14.27;7.03;;;4.80;70.40;;;;;;6244569;23;20008;-63
2024/01/12 09:16:15;;;;;;;13.10;7.00;;;4.90;70.20;;;;;;6244950;23;20004;-65
2024/01/12 09:18:43;;;;;;;13.90;6.73;;;4.90;69.70;;;;;;6244909;23;20331;-63
2024/01/12 09:21:09;;;;;;;13.53;6.77;;;4.90;70.00;;;;;;6244498;23;20094;-64
2024/01/12 09:23:35;;;;;;;20.97;6.43;;;5.00;70.20;;;;;;6244829;23;20042;-64
2024/01/12 09:26:00;;;;;;;15.20;6.90;;;5.00;70.60;;;;;;6244819;23;20054;-63
2024/01/12 09:28:26;;;;;;;11.13;7.00;;;5.00;70.90;;;;;;6242785;23;20004;-64
2024/01/12 09:30:52;;;;;;;14.47;7.30;;;5.10;69.90;;;;;;6242097;23;20004;-64
2024/01/12 09:33:17;;;;;;;12.50;7.20;;;5.10;70.80;;;;;;6241790;23;20075;-64
2024/01/12 09:35:43;;;;;;;12.83;6.73;;;5.20;69.50;;;;;;6244252;23;20000;-64
2024/01/12 09:38:09;;;;;;;12.60;7.10;;;5.20;68.60;;;;;;6244951;23;20000;-64
2024/01/12 09:40:34;;;;;;;12.07;7.00;;;5.20;68.90;;;;;;6245149;23;19996;-64
2024/01/12 09:43:01;;;;;;;13.57;7.07;;;5.20;68.60;;;;;;6244583;23;20008;-64
2024/01/12 09:45:27;;;;;;;11.83;6.80;;;5.30;68.10;;;;;;6245412;23;20012;-64
2024/01/12 09:47:53;;;;;;;11.53;6.57;;;5.30;68.10;;;;;;6243910;23;20070;-64
2024/01/12 09:50:23;;;;;;;13.63;7.33;;;5.30;68.60;;;;;;6244004;23;20020;-64
2024/01/12 09:52:53;;;;;;;14.83;6.97;;;5.40;68.60;;;;;;6244891;23;20001;-64
2024/01/12 09:55:19;;;;;;;13.87;6.63;;;5.40;68.10;;;;;;6245727;23;20028;-63
2024/01/12 09:57:46;;;;;;;23.83;7.30;;;;;;;;;;6245749;23;20046;-64
2024/01/12 10:00:16;;;;;;;12.47;6.37;;;;;;;;;;6246558;23;20027;-64
2024/01/12 10:02:42;;;;;;;13.90;7.47;;;;;;;;;;6246559;23;20069;-64
2024/01/12 10:05:09;;;;;;;12.87;7.20;;;;;;;;;;6246360;23;20458;-64
2024/01/12 10:07:35;;;;;;;14.10;6.93;;;;;;;;;;6246506;23;20004;-64
2024/01/12 10:10:01;;;;;;;13.23;7.17;;;;;;;;;;6246616;23;20000;-64
2024/01/12 10:12:27;;;;;;;14.77;7.33;;;;;;;;;;6246542;23;20008;-64
2024/01/12 10:15:03;;;;;;;10.33;6.53;;;;;;;;;;6246416;23;20004;-63
2024/01/12 10:17:30;;;;;;;13.17;7.30;;;;;;;;;;6246463;23;20000;-63
2024/01/12 10:19:56;;;;;;;13.37;7.37;;;;;;;;;;6246329;23;20027;-64
2024/01/12 10:22:22;;;;;;;17.27;6.87;;;;;;;;;;6246261;23;20008;-64
2024/01/12 10:24:59;;;;;;;15.47;6.93;;;;;;;;;;6246813;23;20031;-64
2024/01/12 10:27:26;;;;;;;12.93;7.17;;;5.80;91.30;;;;;;6246672;23;20004;-63
2024/01/12 10:29:53;;;;;;;13.83;7.17;;;5.80;90.10;;;;;;6246117;23;20043;-64
2024/01/12 10:32:19;;;;;;;13.80;7.40;;;5.90;89.50;;;;;;6246670;23;20336;-64
2024/01/12 10:34:47;;;;;;;16.00;7.67;;;;;;;;;;6246375;23;20027;-64
2024/01/12 10:37:15;;;;;;;12.40;7.10;;;5.90;95.90;;;;;;6246475;23;20007;-64
2024/01/12 10:39:46;;;;;;;13.13;7.47;;;5.80;66.80;;;;;;6246406;23;20418;-63
2024/01/12 10:42:13;;;;;;;12.53;6.70;;;5.90;67.40;;;;;;6246333;23;20012;-64
2024/01/12 10:44:43;;;;;;;16.63;6.60;;;6.00;67.50;;;;;;6218369;23;20083;-64
2024/01/12 10:47:17;;;;;;;13.50;6.93;;;6.00;66.60;;;;;;6244526;23;20142;-63
2024/01/12 10:49:53;;;;;;;16.40;7.33;;;6.00;66.60;;;;;;6246056;23;20003;-63
2024/01/12 10:52:49;;;;;;;15.60;7.73;;;6.10;67.10;;;;;;6245482;23;20334;-63
2024/01/12 10:55:22;;;;;;;13.93;7.90;;;6.20;66.50;;;;;;6246503;23;20015;-63
2024/01/12 10:57:47;;;;;;;;;;;6.20;66.50;;;;;;6232781;23;20000;-64
2024/01/12 11:00:14;;;;;;;16.17;7.03;;;6.20;67.00;;;;;;6246088;23;19900;-64
2024/01/12 11:02:40;;;;;;;13.53;6.80;;;6.30;66.50;;;;;;6245753;23;20087;-63
2024/01/12 11:05:11;;;;;;;12.87;7.27;;;;;;;;;;6245362;23;20454;-63
2024/01/12 11:07:39;;;;;;;12.43;6.47;;;6.30;66.20;;;;;;6245871;23;20053;-64
2024/01/12 11:10:06;;;;;;;14.03;7.77;;;6.40;67.00;;;;;;6246162;23;20000;-63
2024/01/12 11:12:42;;;;;;;12.93;7.17;;;6.40;66.20;;;;;;6245931;23;20004;-65
2024/01/12 11:15:08;;;;;;;12.20;7.23;;;6.40;66.60;;;;;;6246334;23;20095;-63
2024/01/12 11:17:36;;;;;;;16.77;8.00;;;6.50;66.20;;;;;;6246051;23;20000;-64
2024/01/12 11:20:10;;;;;;;15.87;7.30;;;6.50;66.20;;;;;;6245864;23;20000;-64
2024/01/12 11:22:40;;;;;;;13.63;7.60;;;6.50;65.90;;;;;;6245831;23;20011;-63
2024/01/12 11:25:07;;;;;;;12.47;7.23;;;6.50;65.90;;;;;;6245763;23;20027;-64
2024/01/12 11:27:35;;;;;;;15.20;7.43;;;6.60;65.80;;;;;;6246075;23;20008;-63
2024/01/12 11:30:05;;;;;;;11.23;7.77;;;6.60;65.70;;;;;;6246142;23;20004;-63
2024/01/12 11:32:32;;;;;;;14.63;7.07;;;6.70;66.60;;;;;;6245279;23;20004;-63
2024/01/12 11:35:17;;;;;;;14.50;7.23;;;6.70;66.10;;;;;;6245555;23;20000;-63
2024/01/12 11:37:45;;;;;;;18.30;7.53;;;6.70;66.40;;;;;;6245903;23;20086;-64
2024/01/12 11:40:15;;;;;;;13.90;7.87;;;6.70;65.80;;;;;;6245552;23;20075;-64
2024/01/12 11:42:43;;;;;;;15.10;7.73;;;6.70;66.20;;;;;;6245186;23;20043;-64
2024/01/12 11:45:15;;;;;;;17.00;7.13;;;;;;;;;;6245421;23;20027;-65
2024/01/12 11:47:42;;;;;;;11.40;6.82;;;;;;;;;;6245485;23;20023;-65
2024/01/12 11:50:15;;;;;;;14.67;7.63;;;6.70;66.30;;;;;;6245825;23;20348;-64
2024/01/12 11:52:41;;;;;;;13.50;7.70;;;6.70;66.20;;;;;;6245434;23;20011;-64
2024/01/12 11:55:09;;;;;;;10.87;6.87;;;6.70;66.10;;;;;;6245552;23;20050;-64
2024/01/12 11:57:36;;;;;;;13.50;7.60;;;6.80;66.70;;;;;;6244489;23;20381;-65
2024/01/12 12:00:06;;;;;;;15.50;7.40;;;6.80;66.60;;;;;;6245165;23;19996;-65
2024/01/12 12:02:37;;;;;;;14.50;7.47;;;6.80;66.50;;;;;;6217916;23;20020;-65
2024/01/12 12:05:06;;;;;;;13.03;6.70;;;6.80;66.10;;;;;;6245018;23;20004;-66
2024/01/12 12:07:36;;;;;;;10.27;6.73;;;6.80;66.50;;;;;;6244587;23;20000;-65
2024/01/12 12:10:02;;;;;;;12.27;6.60;;;6.90;66.60;;;;;;6245134;23;20004;-65
2024/01/12 12:12:28;;;;;;;11.23;5.97;;;6.90;66.20;;;;;;6245362;23;20000;-65
2024/01/12 12:15:07;;;;;;;10.87;6.43;;;6.90;66.10;;;;;;6244975;23;20150;-65
2024/01/12 12:17:36;;;;;;;10.37;6.03;;;6.90;65.60;;;;;;6245694;23;20008;-64
2024/01/12 12:20:12;;;;;;;10.67;6.07;;;6.80;65.90;;;;;;6218142;23;20004;-65
2024/01/12 12:22:42;;;;;;;9.13;6.23;;;6.80;66.30;;;;;;6244769;23;20012;-65
2024/01/12 12:25:12;;;;;;;14.37;5.90;;;6.90;66.30;;;;;;6245074;23;20315;-65
2024/01/12 12:27:42;;;;;;;9.53;5.53;;;6.90;66.10;;;;;;6245136;23;20007;-64
2024/01/12 12:30:09;;;;;;;13.53;5.97;;;6.90;65.80;;;;;;6245401;23;20000;-64
2024/01/12 12:32:38;;;;;;;11.97;5.27;;;6.90;66.40;;;;;;6245311;23;20012;-65
2024/01/12 12:35:19;;;;;;;10.10;5.80;;;6.90;66.10;;;;;;6244505;23;20058;-66
2024/01/12 12:37:48;;;;;;;8.07;5.60;;;6.90;65.80;;;;;;6245238;23;20350;-65
2024/01/12 12:40:16;;;;;;;10.10;5.83;;;6.80;65.70;;;;;;6244824;23;20000;-64
2024/01/12 12:42:44;;;;;;;11.87;6.30;;;6.80;65.50;;;;;;6244580;23;20478;-64
2024/01/12 12:45:10;;;;;;;8.73;5.57;;;6.80;65.40;;;;;;6245436;23;20000;-64
2024/01/12 12:47:36;;;;;;;7.47;5.37;;;6.80;65.90;;;;;;6245212;23;20022;-64